sensor_id;sensor_type;location;lat;lon;timestamp;P1;durP1;ratioP1;P2;durP2;ratioP2
22939;SDS011;11636;52.086;5.090;2023-04-28T00:02:37;6.25;;;4.07;;
22939;SDS011;11636;52.086;5.090;2023-04-28T00:05:31;5.80;;;3.65;;
22939;SDS011;11636;52.086;5.090;2023-04-28T00:08:19;5.43;;;3.60;;
22939;SDS011;11636;52.086;5.090;2023-04-28T00:11:14;6.43;;;4.30;;
22939;SDS011;11636;52.086;5.090;2023-04-28T00:14:01;6.07;;;4.03;;
22939;SDS011;11636;52.086;5.090;2023-04-28T00:16:55;5.78;;;3.95;;
22939;SDS011;11636;52.086;5.090;2023-04-28T00:19:44;4.63;;;3.67;;
22939;SDS011;11636;52.086;5.090;2023-04-28T00:22:38;5.65;;;3.92;;
22939;SDS011;11636;52.086;5.090;2023-04-28T00:25:32;5.00;;;3.65;;
22939;SDS011;11636;52.086;5.090;2023-04-28T00:28:19;5.32;;;3.25;;
22939;SDS011;11636;52.086;5.090;2023-04-28T00:31:19;5.70;;;4.10;;
22939;SDS011;11636;52.086;5.090;2023-04-28T00:34:07;5.50;;;3.55;;
22939;SDS011;11636;52.086;5.090;2023-04-28T00:37:02;4.80;;;3.17;;
22939;SDS011;11636;52.086;5.090;2023-04-28T00:39:55;5.72;;;3.65;;
22939;SDS011;11636;52.086;5.090;2023-04-28T00:42:49;4.68;;;3.00;;
22939;SDS011;11636;52.086;5.090;2023-04-28T00:45:43;4.65;;;3.13;;
22939;SDS011;11636;52.086;5.090;2023-04-28T00:48:37;4.88;;;3.20;;
22939;SDS011;11636;52.086;5.090;2023-04-28T00:51:31;6.18;;;3.95;;
22939;SDS011;11636;52.086;5.090;2023-04-28T00:54:25;5.82;;;3.60;;
22939;SDS011;11636;52.086;5.090;2023-04-28T00:57:19;6.65;;;3.92;;
22939;SDS011;11636;52.086;5.090;2023-04-28T01:00:06;5.63;;;4.00;;
22939;SDS011;11636;52.086;5.090;2023-04-28T01:03:01;5.72;;;3.90;;
22939;SDS011;11636;52.086;5.090;2023-04-28T01:05:55;7.55;;;4.20;;
22939;SDS011;11636;52.086;5.090;2023-04-28T01:08:49;6.47;;;4.22;;
22939;SDS011;11636;52.086;5.090;2023-04-28T01:11:43;5.53;;;3.63;;
22939;SDS011;11636;52.086;5.090;2023-04-28T01:14:31;6.60;;;3.83;;
22939;SDS011;11636;52.086;5.090;2023-04-28T01:17:25;5.10;;;3.42;;
22939;SDS011;11636;52.086;5.090;2023-04-28T01:20:19;5.13;;;3.50;;
22939;SDS011;11636;52.086;5.090;2023-04-28T01:23:13;6.30;;;3.88;;
22939;SDS011;11636;52.086;5.090;2023-04-28T01:26:08;6.43;;;3.70;;
22939;SDS011;11636;52.086;5.090;2023-04-28T01:29:02;6.80;;;4.15;;
22939;SDS011;11636;52.086;5.090;2023-04-28T01:31:56;5.57;;;3.65;;
22939;SDS011;11636;52.086;5.090;2023-04-28T01:34:57;5.47;;;3.50;;
22939;SDS011;11636;52.086;5.090;2023-04-28T01:37:44;6.47;;;3.95;;
22939;SDS011;11636;52.086;5.090;2023-04-28T01:40:38;5.50;;;3.92;;
22939;SDS011;11636;52.086;5.090;2023-04-28T01:43:25;6.25;;;3.83;;
22939;SDS011;11636;52.086;5.090;2023-04-28T01:46:19;5.57;;;3.50;;
22939;SDS011;11636;52.086;5.090;2023-04-28T01:49:06;5.28;;;3.60;;
22939;SDS011;11636;52.086;5.090;2023-04-28T01:52:00;5.88;;;3.08;;
22939;SDS011;11636;52.086;5.090;2023-04-28T01:54:47;7.95;;;4.38;;
22939;SDS011;11636;52.086;5.090;2023-04-28T01:57:41;5.78;;;3.70;;
22939;SDS011;11636;52.086;5.090;2023-04-28T02:00:42;6.70;;;3.70;;
22939;SDS011;11636;52.086;5.090;2023-04-28T02:03:35;5.82;;;3.47;;
22939;SDS011;11636;52.086;5.090;2023-04-28T02:06:22;4.93;;;3.10;;
22939;SDS011;11636;52.086;5.090;2023-04-28T02:09:16;5.13;;;3.50;;
22939;SDS011;11636;52.086;5.090;2023-04-28T02:12:03;5.00;;;3.50;;
22939;SDS011;11636;52.086;5.090;2023-04-28T02:14:57;5.07;;;3.30;;
22939;SDS011;11636;52.086;5.090;2023-04-28T02:17:44;5.70;;;3.88;;
22939;SDS011;11636;52.086;5.090;2023-04-28T02:20:38;7.68;;;3.90;;
22939;SDS011;11636;52.086;5.090;2023-04-28T02:23:26;8.75;;;4.07;;
22939;SDS011;11636;52.086;5.090;2023-04-28T02:26:19;5.85;;;3.60;;
22939;SDS011;11636;52.086;5.090;2023-04-28T02:29:06;6.05;;;3.20;;
22939;SDS011;11636;52.086;5.090;2023-04-28T02:32:00;4.70;;;3.20;;
22939;SDS011;11636;52.086;5.090;2023-04-28T02:34:51;4.88;;;3.15;;
22939;SDS011;11636;52.086;5.090;2023-04-28T02:37:46;4.07;;;2.60;;
22939;SDS011;11636;52.086;5.090;2023-04-28T02:40:33;5.22;;;3.33;;
22939;SDS011;11636;52.086;5.090;2023-04-28T02:43:27;5.40;;;2.83;;
22939;SDS011;11636;52.086;5.090;2023-04-28T02:46:21;4.05;;;2.60;;
22939;SDS011;11636;52.086;5.090;2023-04-28T02:49:08;5.45;;;3.60;;
22939;SDS011;11636;52.086;5.090;2023-04-28T02:52:02;4.82;;;3.05;;
22939;SDS011;11636;52.086;5.090;2023-04-28T02:54:49;4.45;;;2.95;;
22939;SDS011;11636;52.086;5.090;2023-04-28T02:57:46;5.07;;;2.90;;
22939;SDS011;11636;52.086;5.090;2023-04-28T03:00:40;6.25;;;3.33;;
22939;SDS011;11636;52.086;5.090;2023-04-28T03:03:27;4.30;;;2.97;;
22939;SDS011;11636;52.086;5.090;2023-04-28T03:06:22;4.82;;;2.78;;
22939;SDS011;11636;52.086;5.090;2023-04-28T03:09:09;3.38;;;2.53;;
22939;SDS011;11636;52.086;5.090;2023-04-28T03:12:03;4.70;;;3.10;;
22939;SDS011;11636;52.086;5.090;2023-04-28T03:14:50;5.40;;;3.50;;
22939;SDS011;11636;52.086;5.090;2023-04-28T03:17:44;5.75;;;3.70;;
22939;SDS011;11636;52.086;5.090;2023-04-28T03:20:32;6.63;;;3.33;;
22939;SDS011;11636;52.086;5.090;2023-04-28T03:23:26;5.63;;;3.35;;
22939;SDS011;11636;52.086;5.090;2023-04-28T03:26:19;7.22;;;3.67;;
22939;SDS011;11636;52.086;5.090;2023-04-28T03:29:13;5.70;;;2.97;;
22939;SDS011;11636;52.086;5.090;2023-04-28T03:32:07;6.72;;;3.65;;
22939;SDS011;11636;52.086;5.090;2023-04-28T03:34:54;5.45;;;3.30;;
22939;SDS011;11636;52.086;5.090;2023-04-28T03:37:48;4.75;;;2.83;;
22939;SDS011;11636;52.086;5.090;2023-04-28T03:40:42;4.28;;;2.92;;
22939;SDS011;11636;52.086;5.090;2023-04-28T03:43:29;4.57;;;2.85;;
22939;SDS011;11636;52.086;5.090;2023-04-28T03:46:24;6.68;;;4.15;;
22939;SDS011;11636;52.086;5.090;2023-04-28T03:49:18;4.68;;;2.95;;
22939;SDS011;11636;52.086;5.090;2023-04-28T03:52:12;5.15;;;3.55;;
22939;SDS011;11636;52.086;5.090;2023-04-28T03:54:59;5.85;;;3.53;;
22939;SDS011;11636;52.086;5.090;2023-04-28T03:57:53;5.43;;;3.50;;
22939;SDS011;11636;52.086;5.090;2023-04-28T04:00:47;4.30;;;2.85;;
22939;SDS011;11636;52.086;5.090;2023-04-28T04:03:41;5.95;;;3.60;;
22939;SDS011;11636;52.086;5.090;2023-04-28T04:06:29;5.20;;;3.30;;
22939;SDS011;11636;52.086;5.090;2023-04-28T04:09:23;4.88;;;3.45;;
22939;SDS011;11636;52.086;5.090;2023-04-28T04:12:11;4.68;;;2.90;;
22939;SDS011;11636;52.086;5.090;2023-04-28T04:15:04;5.93;;;3.90;;
22939;SDS011;11636;52.086;5.090;2023-04-28T04:17:52;5.28;;;3.28;;
22939;SDS011;11636;52.086;5.090;2023-04-28T04:20:46;5.15;;;3.33;;
22939;SDS011;11636;52.086;5.090;2023-04-28T04:23:35;5.65;;;3.80;;
22939;SDS011;11636;52.086;5.090;2023-04-28T04:26:28;5.22;;;3.45;;
22939;SDS011;11636;52.086;5.090;2023-04-28T04:29:16;7.43;;;4.15;;
22939;SDS011;11636;52.086;5.090;2023-04-28T04:32:09;5.75;;;4.07;;
22939;SDS011;11636;52.086;5.090;2023-04-28T04:34:56;5.50;;;3.50;;
22939;SDS011;11636;52.086;5.090;2023-04-28T04:37:50;5.53;;;3.45;;
22939;SDS011;11636;52.086;5.090;2023-04-28T04:40:44;5.40;;;3.60;;
22939;SDS011;11636;52.086;5.090;2023-04-28T04:43:38;4.32;;;2.92;;
22939;SDS011;11636;52.086;5.090;2023-04-28T04:46:32;6.35;;;4.07;;
22939;SDS011;11636;52.086;5.090;2023-04-28T04:49:20;5.28;;;3.90;;
22939;SDS011;11636;52.086;5.090;2023-04-28T04:52:13;5.07;;;3.60;;
22939;SDS011;11636;52.086;5.090;2023-04-28T04:55:00;6.10;;;3.63;;
22939;SDS011;11636;52.086;5.090;2023-04-28T04:57:54;6.90;;;4.30;;
22939;SDS011;11636;52.086;5.090;2023-04-28T05:00:42;6.53;;;4.10;;
22939;SDS011;11636;52.086;5.090;2023-04-28T05:03:35;7.78;;;4.72;;
22939;SDS011;11636;52.086;5.090;2023-04-28T05:06:30;5.53;;;3.65;;
22939;SDS011;11636;52.086;5.090;2023-04-28T05:09:17;5.55;;;3.92;;
22939;SDS011;11636;52.086;5.090;2023-04-28T05:12:10;5.75;;;3.67;;
22939;SDS011;11636;52.086;5.090;2023-04-28T05:14:58;6.93;;;3.90;;
22939;SDS011;11636;52.086;5.090;2023-04-28T05:17:51;5.25;;;3.78;;
22939;SDS011;11636;52.086;5.090;2023-04-28T05:20:39;5.40;;;4.05;;
22939;SDS011;11636;52.086;5.090;2023-04-28T05:23:32;6.18;;;4.47;;
22939;SDS011;11636;52.086;5.090;2023-04-28T05:26:26;4.80;;;3.30;;
22939;SDS011;11636;52.086;5.090;2023-04-28T05:29:20;5.60;;;3.78;;
22939;SDS011;11636;52.086;5.090;2023-04-28T05:32:14;6.45;;;4.40;;
22939;SDS011;11636;52.086;5.090;2023-04-28T05:35:02;8.02;;;4.93;;
22939;SDS011;11636;52.086;5.090;2023-04-28T05:37:56;6.03;;;4.25;;
22939;SDS011;11636;52.086;5.090;2023-04-28T05:40:49;9.35;;;5.43;;
22939;SDS011;11636;52.086;5.090;2023-04-28T05:43:36;6.07;;;4.68;;
22939;SDS011;11636;52.086;5.090;2023-04-28T05:46:30;6.45;;;4.68;;
22939;SDS011;11636;52.086;5.090;2023-04-28T05:49:18;6.78;;;4.32;;
22939;SDS011;11636;52.086;5.090;2023-04-28T05:52:11;7.07;;;5.00;;
22939;SDS011;11636;52.086;5.090;2023-04-28T05:55:05;6.18;;;4.40;;
22939;SDS011;11636;52.086;5.090;2023-04-28T05:57:59;8.48;;;6.20;;
22939;SDS011;11636;52.086;5.090;2023-04-28T06:00:47;8.65;;;6.53;;
22939;SDS011;11636;52.086;5.090;2023-04-28T06:03:41;5.95;;;4.63;;
22939;SDS011;11636;52.086;5.090;2023-04-28T06:06:35;6.90;;;5.13;;
22939;SDS011;11636;52.086;5.090;2023-04-28T06:09:22;8.27;;;6.20;;
22939;SDS011;11636;52.086;5.090;2023-04-28T06:12:15;9.07;;;6.38;;
22939;SDS011;11636;52.086;5.090;2023-04-28T06:15:10;8.65;;;6.32;;
22939;SDS011;11636;52.086;5.090;2023-04-28T06:18:04;12.18;;;8.48;;
22939;SDS011;11636;52.086;5.090;2023-04-28T06:20:55;12.02;;;8.32;;
22939;SDS011;11636;52.086;5.090;2023-04-28T06:23:49;12.77;;;8.82;;
22939;SDS011;11636;52.086;5.090;2023-04-28T06:26:36;8.25;;;6.57;;
22939;SDS011;11636;52.086;5.090;2023-04-28T06:29:29;11.88;;;9.30;;
22939;SDS011;11636;52.086;5.090;2023-04-28T06:32:24;11.48;;;8.43;;
22939;SDS011;11636;52.086;5.090;2023-04-28T06:35:11;14.18;;;9.02;;
22939;SDS011;11636;52.086;5.090;2023-04-28T06:38:05;11.63;;;8.38;;
22939;SDS011;11636;52.086;5.090;2023-04-28T06:40:52;10.25;;;7.55;;
22939;SDS011;11636;52.086;5.090;2023-04-28T06:43:46;13.48;;;8.98;;
22939;SDS011;11636;52.086;5.090;2023-04-28T06:46:33;9.45;;;7.22;;
22939;SDS011;11636;52.086;5.090;2023-04-28T06:49:27;10.25;;;7.65;;
22939;SDS011;11636;52.086;5.090;2023-04-28T06:52:14;10.77;;;7.90;;
22939;SDS011;11636;52.086;5.090;2023-04-28T06:55:15;14.10;;;10.30;;
22939;SDS011;11636;52.086;5.090;2023-04-28T06:58:10;12.68;;;9.10;;
22939;SDS011;11636;52.086;5.090;2023-04-28T07:01:03;12.60;;;8.93;;
22939;SDS011;11636;52.086;5.090;2023-04-28T07:03:58;10.23;;;7.63;;
22939;SDS011;11636;52.086;5.090;2023-04-28T07:06:52;9.63;;;7.50;;
22939;SDS011;11636;52.086;5.090;2023-04-28T07:09:39;10.38;;;7.63;;
22939;SDS011;11636;52.086;5.090;2023-04-28T07:12:33;9.10;;;6.80;;
22939;SDS011;11636;52.086;5.090;2023-04-28T07:15:27;13.77;;;9.30;;
22939;SDS011;11636;52.086;5.090;2023-04-28T07:18:21;10.73;;;7.97;;
22939;SDS011;11636;52.086;5.090;2023-04-28T07:21:15;10.73;;;8.35;;
22939;SDS011;11636;52.086;5.090;2023-04-28T07:24:09;9.05;;;7.03;;
22939;SDS011;11636;52.086;5.090;2023-04-28T07:26:56;8.88;;;7.03;;
22939;SDS011;11636;52.086;5.090;2023-04-28T07:29:50;10.90;;;7.97;;
22939;SDS011;11636;52.086;5.090;2023-04-28T07:32:44;10.70;;;8.40;;
22939;SDS011;11636;52.086;5.090;2023-04-28T07:35:38;10.50;;;8.23;;
22939;SDS011;11636;52.086;5.090;2023-04-28T07:38:25;9.55;;;6.93;;
22939;SDS011;11636;52.086;5.090;2023-04-28T07:41:19;10.73;;;8.43;;
22939;SDS011;11636;52.086;5.090;2023-04-28T07:44:06;10.68;;;7.72;;
22939;SDS011;11636;52.086;5.090;2023-04-28T07:47:03;12.07;;;9.48;;
22939;SDS011;11636;52.086;5.090;2023-04-28T07:49:57;10.00;;;7.63;;
22939;SDS011;11636;52.086;5.090;2023-04-28T07:52:53;8.73;;;6.88;;
22939;SDS011;11636;52.086;5.090;2023-04-28T07:55:40;10.60;;;8.25;;
22939;SDS011;11636;52.086;5.090;2023-04-28T07:58:38;12.48;;;8.85;;
22939;SDS011;11636;52.086;5.090;2023-04-28T08:01:25;13.65;;;9.38;;
22939;SDS011;11636;52.086;5.090;2023-04-28T08:04:19;12.43;;;9.80;;
22939;SDS011;11636;52.086;5.090;2023-04-28T08:07:07;14.13;;;9.80;;
22939;SDS011;11636;52.086;5.090;2023-04-28T08:10:01;10.95;;;8.25;;
22939;SDS011;11636;52.086;5.090;2023-04-28T08:12:56;13.43;;;10.63;;
22939;SDS011;11636;52.086;5.090;2023-04-28T08:15:50;13.73;;;10.43;;
22939;SDS011;11636;52.086;5.090;2023-04-28T08:18:37;13.57;;;10.45;;
22939;SDS011;11636;52.086;5.090;2023-04-28T08:21:32;17.48;;;13.15;;
22939;SDS011;11636;52.086;5.090;2023-04-28T08:24:19;11.52;;;9.32;;
22939;SDS011;11636;52.086;5.090;2023-04-28T08:27:13;17.05;;;12.50;;
22939;SDS011;11636;52.086;5.090;2023-04-28T08:30:00;13.40;;;10.85;;
22939;SDS011;11636;52.086;5.090;2023-04-28T08:32:54;14.13;;;11.10;;
22939;SDS011;11636;52.086;5.090;2023-04-28T08:35:41;14.52;;;11.50;;
22939;SDS011;11636;52.086;5.090;2023-04-28T08:38:35;16.15;;;12.32;;
22939;SDS011;11636;52.086;5.090;2023-04-28T08:41:22;12.93;;;10.30;;
22939;SDS011;11636;52.086;5.090;2023-04-28T08:44:18;13.95;;;11.52;;
22939;SDS011;11636;52.086;5.090;2023-04-28T08:47:12;17.23;;;13.80;;
22939;SDS011;11636;52.086;5.090;2023-04-28T08:50:04;14.57;;;11.75;;
22939;SDS011;11636;52.086;5.090;2023-04-28T08:52:59;15.60;;;12.40;;
22939;SDS011;11636;52.086;5.090;2023-04-28T08:55:56;14.85;;;11.50;;
22939;SDS011;11636;52.086;5.090;2023-04-28T08:58:50;16.65;;;14.07;;
22939;SDS011;11636;52.086;5.090;2023-04-28T09:01:47;14.05;;;11.73;;
22939;SDS011;11636;52.086;5.090;2023-04-28T09:04:41;13.60;;;11.07;;
22939;SDS011;11636;52.086;5.090;2023-04-28T09:07:29;14.27;;;12.32;;
22939;SDS011;11636;52.086;5.090;2023-04-28T09:10:23;14.05;;;11.43;;
22939;SDS011;11636;52.086;5.090;2023-04-28T09:13:23;14.70;;;13.10;;
22939;SDS011;11636;52.086;5.090;2023-04-28T09:16:18;14.23;;;12.25;;
22939;SDS011;11636;52.086;5.090;2023-04-28T09:19:12;13.60;;;11.57;;
22939;SDS011;11636;52.086;5.090;2023-04-28T09:22:00;14.02;;;12.25;;
22939;SDS011;11636;52.086;5.090;2023-04-28T09:25:11;13.57;;;11.40;;
22939;SDS011;11636;52.086;5.090;2023-04-28T09:28:20;14.63;;;12.50;;
22939;SDS011;11636;52.086;5.090;2023-04-28T09:31:20;12.00;;;10.60;;
22939;SDS011;11636;52.086;5.090;2023-04-28T09:34:20;12.13;;;10.35;;
22939;SDS011;11636;52.086;5.090;2023-04-28T09:37:14;11.75;;;10.07;;
22939;SDS011;11636;52.086;5.090;2023-04-28T09:40:09;12.32;;;10.43;;
22939;SDS011;11636;52.086;5.090;2023-04-28T09:43:04;13.30;;;11.90;;
22939;SDS011;11636;52.086;5.090;2023-04-28T09:46:15;13.50;;;11.27;;
22939;SDS011;11636;52.086;5.090;2023-04-28T09:49:21;12.43;;;10.15;;
22939;SDS011;11636;52.086;5.090;2023-04-28T09:52:12;10.82;;;9.48;;
22939;SDS011;11636;52.086;5.090;2023-04-28T09:55:06;14.90;;;12.52;;
22939;SDS011;11636;52.086;5.090;2023-04-28T09:58:04;12.40;;;10.55;;
22939;SDS011;11636;52.086;5.090;2023-04-28T10:00:53;13.45;;;10.60;;
22939;SDS011;11636;52.086;5.090;2023-04-28T10:03:48;13.68;;;11.63;;
22939;SDS011;11636;52.086;5.090;2023-04-28T10:06:43;12.20;;;10.90;;
22939;SDS011;11636;52.086;5.090;2023-04-28T10:09:31;13.95;;;11.98;;
22939;SDS011;11636;52.086;5.090;2023-04-28T10:12:25;15.05;;;12.15;;
22939;SDS011;11636;52.086;5.090;2023-04-28T10:15:13;15.20;;;12.90;;
22939;SDS011;11636;52.086;5.090;2023-04-28T10:18:07;13.82;;;11.98;;
22939;SDS011;11636;52.086;5.090;2023-04-28T10:21:02;18.25;;;14.60;;
22939;SDS011;11636;52.086;5.090;2023-04-28T10:26:59;21.52;;;16.02;;
22939;SDS011;11636;52.086;5.090;2023-04-28T10:30:17;24.10;;;18.85;;
22939;SDS011;11636;52.086;5.090;2023-04-28T10:36:08;24.00;;;17.90;;
22939;SDS011;11636;52.086;5.090;2023-04-28T10:39:10;20.50;;;17.10;;
22939;SDS011;11636;52.086;5.090;2023-04-28T10:51:39;20.15;;;16.17;;
22939;SDS011;11636;52.086;5.090;2023-04-28T10:54:26;17.08;;;13.48;;
22939;SDS011;11636;52.086;5.090;2023-04-28T10:57:22;17.20;;;12.07;;
22939;SDS011;11636;52.086;5.090;2023-04-28T11:00:25;16.38;;;12.18;;
22939;SDS011;11636;52.086;5.090;2023-04-28T11:06:31;14.27;;;10.00;;
22939;SDS011;11636;52.086;5.090;2023-04-28T11:09:46;15.10;;;10.70;;
22939;SDS011;11636;52.086;5.090;2023-04-28T11:12:34;13.55;;;9.38;;
22939;SDS011;11636;52.086;5.090;2023-04-28T11:15:21;13.82;;;9.27;;
22939;SDS011;11636;52.086;5.090;2023-04-28T11:18:15;10.23;;;6.63;;
22939;SDS011;11636;52.086;5.090;2023-04-28T11:21:14;6.95;;;4.32;;
22939;SDS011;11636;52.086;5.090;2023-04-28T11:24:08;8.30;;;3.70;;
22939;SDS011;11636;52.086;5.090;2023-04-28T11:27:03;6.07;;;3.47;;
22939;SDS011;11636;52.086;5.090;2023-04-28T11:29:50;4.03;;;2.30;;
22939;SDS011;11636;52.086;5.090;2023-04-28T11:32:44;3.90;;;1.90;;
22939;SDS011;11636;52.086;5.090;2023-04-28T11:35:42;4.72;;;1.67;;
22939;SDS011;11636;52.086;5.090;2023-04-28T11:38:43;3.85;;;1.50;;
22939;SDS011;11636;52.086;5.090;2023-04-28T11:41:38;2.72;;;1.63;;
22939;SDS011;11636;52.086;5.090;2023-04-28T11:44:28;2.67;;;1.30;;
22939;SDS011;11636;52.086;5.090;2023-04-28T11:47:32;2.35;;;1.27;;
22939;SDS011;11636;52.086;5.090;2023-04-28T11:50:36;3.60;;;1.40;;
22939;SDS011;11636;52.086;5.090;2023-04-28T11:53:40;3.83;;;1.73;;
22939;SDS011;11636;52.086;5.090;2023-04-28T11:56:38;3.33;;;1.90;;
22939;SDS011;11636;52.086;5.090;2023-04-28T11:59:33;4.45;;;2.03;;
22939;SDS011;11636;52.086;5.090;2023-04-28T12:02:27;3.90;;;2.28;;
22939;SDS011;11636;52.086;5.090;2023-04-28T12:05:21;5.40;;;2.60;;
22939;SDS011;11636;52.086;5.090;2023-04-28T12:08:26;5.07;;;2.13;;
22939;SDS011;11636;52.086;5.090;2023-04-28T12:11:16;6.07;;;2.80;;
22939;SDS011;11636;52.086;5.090;2023-04-28T12:14:11;6.00;;;3.80;;
22939;SDS011;11636;52.086;5.090;2023-04-28T12:16:58;4.78;;;3.55;;
22939;SDS011;11636;52.086;5.090;2023-04-28T12:19:53;5.75;;;5.03;;
22939;SDS011;11636;52.086;5.090;2023-04-28T12:22:44;5.80;;;4.47;;
22939;SDS011;11636;52.086;5.090;2023-04-28T12:25:45;6.07;;;4.30;;
22939;SDS011;11636;52.086;5.090;2023-04-28T12:28:39;4.70;;;4.15;;
22939;SDS011;11636;52.086;5.090;2023-04-28T12:31:49;4.30;;;3.90;;
22939;SDS011;11636;52.086;5.090;2023-04-28T12:34:39;5.93;;;3.78;;
22939;SDS011;11636;52.086;5.090;2023-04-28T12:37:34;5.18;;;3.53;;
22939;SDS011;11636;52.086;5.090;2023-04-28T12:40:23;4.63;;;3.75;;
22939;SDS011;11636;52.086;5.090;2023-04-28T12:43:17;4.13;;;2.67;;
22939;SDS011;11636;52.086;5.090;2023-04-28T12:46:11;3.50;;;2.72;;
22939;SDS011;11636;52.086;5.090;2023-04-28T12:49:06;4.43;;;3.00;;
22939;SDS011;11636;52.086;5.090;2023-04-28T12:51:53;4.03;;;3.00;;
22939;SDS011;11636;52.086;5.090;2023-04-28T12:54:54;3.33;;;3.00;;
22939;SDS011;11636;52.086;5.090;2023-04-28T12:57:48;3.10;;;2.50;;
22939;SDS011;11636;52.086;5.090;2023-04-28T13:00:35;2.67;;;2.28;;
22939;SDS011;11636;52.086;5.090;2023-04-28T13:03:29;3.55;;;2.70;;
22939;SDS011;11636;52.086;5.090;2023-04-28T13:06:17;3.13;;;2.60;;
22939;SDS011;11636;52.086;5.090;2023-04-28T13:09:10;3.63;;;2.70;;
22939;SDS011;11636;52.086;5.090;2023-04-28T13:11:58;3.72;;;2.22;;
22939;SDS011;11636;52.086;5.090;2023-04-28T13:14:51;3.05;;;2.40;;
22939;SDS011;11636;52.086;5.090;2023-04-28T13:17:39;2.85;;;2.40;;
22939;SDS011;11636;52.086;5.090;2023-04-28T13:20:32;3.45;;;2.50;;
22939;SDS011;11636;52.086;5.090;2023-04-28T13:23:19;3.15;;;2.00;;
22939;SDS011;11636;52.086;5.090;2023-04-28T13:26:13;2.60;;;1.83;;
22939;SDS011;11636;52.086;5.090;2023-04-28T13:29:00;2.53;;;1.95;;
22939;SDS011;11636;52.086;5.090;2023-04-28T13:31:55;3.95;;;2.10;;
22939;SDS011;11636;52.086;5.090;2023-04-28T13:34:42;3.22;;;2.58;;
22939;SDS011;11636;52.086;5.090;2023-04-28T13:37:36;4.80;;;3.00;;
22939;SDS011;11636;52.086;5.090;2023-04-28T13:40:34;4.75;;;4.13;;
22939;SDS011;11636;52.086;5.090;2023-04-28T13:43:21;6.75;;;4.88;;
22939;SDS011;11636;52.086;5.090;2023-04-28T13:46:22;5.97;;;4.82;;
22939;SDS011;11636;52.086;5.090;2023-04-28T13:49:09;7.47;;;6.20;;
22939;SDS011;11636;52.086;5.090;2023-04-28T13:52:03;8.57;;;6.90;;
22939;SDS011;11636;52.086;5.090;2023-04-28T13:54:57;11.80;;;8.15;;
22939;SDS011;11636;52.086;5.090;2023-04-28T13:57:44;10.10;;;7.93;;
22939;SDS011;11636;52.086;5.090;2023-04-28T14:00:38;14.40;;;8.82;;
22939;SDS011;11636;52.086;5.090;2023-04-28T14:03:26;12.80;;;9.48;;
22939;SDS011;11636;52.086;5.090;2023-04-28T14:06:19;13.25;;;9.80;;
22939;SDS011;11636;52.086;5.090;2023-04-28T14:09:13;12.30;;;9.73;;
22939;SDS011;11636;52.086;5.090;2023-04-28T14:12:07;13.05;;;9.77;;
22939;SDS011;11636;52.086;5.090;2023-04-28T14:15:05;14.73;;;9.80;;
22939;SDS011;11636;52.086;5.090;2023-04-28T14:17:53;11.52;;;8.95;;
22939;SDS011;11636;52.086;5.090;2023-04-28T14:20:46;13.80;;;9.68;;
22939;SDS011;11636;52.086;5.090;2023-04-28T14:23:40;13.80;;;10.13;;
22939;SDS011;11636;52.086;5.090;2023-04-28T14:26:28;13.65;;;9.95;;
22939;SDS011;11636;52.086;5.090;2023-04-28T14:29:21;12.20;;;9.93;;
22939;SDS011;11636;52.086;5.090;2023-04-28T14:32:08;14.18;;;10.27;;
22939;SDS011;11636;52.086;5.090;2023-04-28T14:35:03;18.85;;;11.80;;
22939;SDS011;11636;52.086;5.090;2023-04-28T14:37:51;16.15;;;11.95;;
22939;SDS011;11636;52.086;5.090;2023-04-28T14:40:46;20.17;;;13.50;;
22939;SDS011;11636;52.086;5.090;2023-04-28T14:43:40;18.83;;;12.75;;
22939;SDS011;11636;52.086;5.090;2023-04-28T14:46:36;18.17;;;13.18;;
22939;SDS011;11636;52.086;5.090;2023-04-28T14:49:30;19.90;;;12.40;;
22939;SDS011;11636;52.086;5.090;2023-04-28T14:52:21;16.67;;;11.73;;
22939;SDS011;11636;52.086;5.090;2023-04-28T14:55:15;14.85;;;10.43;;
22939;SDS011;11636;52.086;5.090;2023-04-28T14:58:10;18.63;;;11.30;;
22939;SDS011;11636;52.086;5.090;2023-04-28T15:00:57;14.98;;;10.30;;
22939;SDS011;11636;52.086;5.090;2023-04-28T15:03:51;17.08;;;11.25;;
22939;SDS011;11636;52.086;5.090;2023-04-28T15:06:39;16.92;;;11.13;;
22939;SDS011;11636;52.086;5.090;2023-04-28T15:09:32;16.83;;;12.98;;
22939;SDS011;11636;52.086;5.090;2023-04-28T15:12:26;19.05;;;13.30;;
22939;SDS011;11636;52.086;5.090;2023-04-28T15:15:23;14.48;;;10.73;;
22939;SDS011;11636;52.086;5.090;2023-04-28T15:18:11;17.20;;;10.50;;
22939;SDS011;11636;52.086;5.090;2023-04-28T15:21:04;15.68;;;9.98;;
22939;SDS011;11636;52.086;5.090;2023-04-28T15:23:58;13.98;;;9.45;;
22939;SDS011;11636;52.086;5.090;2023-04-28T15:26:46;13.38;;;9.02;;
22939;SDS011;11636;52.086;5.090;2023-04-28T15:29:39;18.33;;;11.20;;
22939;SDS011;11636;52.086;5.090;2023-04-28T15:32:33;22.55;;;12.10;;
22939;SDS011;11636;52.086;5.090;2023-04-28T15:35:27;40.20;;;20.27;;
22939;SDS011;11636;52.086;5.090;2023-04-28T15:38:15;27.17;;;15.68;;
22939;SDS011;11636;52.086;5.090;2023-04-28T15:41:08;24.70;;;14.57;;
22939;SDS011;11636;52.086;5.090;2023-04-28T15:43:57;23.08;;;13.80;;
22939;SDS011;11636;52.086;5.090;2023-04-28T15:46:52;27.13;;;16.60;;
22939;SDS011;11636;52.086;5.090;2023-04-28T15:49:40;22.58;;;14.80;;
22939;SDS011;11636;52.086;5.090;2023-04-28T15:52:33;20.73;;;14.77;;
22939;SDS011;11636;52.086;5.090;2023-04-28T15:55:23;24.02;;;15.35;;
22939;SDS011;11636;52.086;5.090;2023-04-28T15:58:16;23.63;;;15.20;;
22939;SDS011;11636;52.086;5.090;2023-04-28T16:01:03;22.70;;;15.05;;
22939;SDS011;11636;52.086;5.090;2023-04-28T16:03:57;23.30;;;15.07;;
22939;SDS011;11636;52.086;5.090;2023-04-28T16:06:53;21.60;;;14.13;;
22939;SDS011;11636;52.086;5.090;2023-04-28T16:09:40;19.77;;;14.05;;
22939;SDS011;11636;52.086;5.090;2023-04-28T16:12:35;25.40;;;15.00;;
22939;SDS011;11636;52.086;5.090;2023-04-28T16:15:28;21.42;;;13.80;;
22939;SDS011;11636;52.086;5.090;2023-04-28T16:18:16;23.35;;;15.13;;
22939;SDS011;11636;52.086;5.090;2023-04-28T16:21:09;23.38;;;15.32;;
22939;SDS011;11636;52.086;5.090;2023-04-28T16:23:57;24.25;;;15.02;;
22939;SDS011;11636;52.086;5.090;2023-04-28T16:26:51;27.80;;;15.80;;
22939;SDS011;11636;52.086;5.090;2023-04-28T16:29:39;24.83;;;14.88;;
22939;SDS011;11636;52.086;5.090;2023-04-28T16:32:33;21.73;;;13.52;;
22939;SDS011;11636;52.086;5.090;2023-04-28T16:35:22;20.02;;;12.25;;
22939;SDS011;11636;52.086;5.090;2023-04-28T16:38:16;19.05;;;12.00;;
22939;SDS011;11636;52.086;5.090;2023-04-28T16:41:10;18.77;;;11.77;;
22939;SDS011;11636;52.086;5.090;2023-04-28T16:44:04;19.23;;;11.98;;
22939;SDS011;11636;52.086;5.090;2023-04-28T16:46:52;15.43;;;10.18;;
22939;SDS011;11636;52.086;5.090;2023-04-28T16:49:46;14.25;;;8.57;;
22939;SDS011;11636;52.086;5.090;2023-04-28T16:52:40;11.60;;;8.25;;
22939;SDS011;11636;52.086;5.090;2023-04-28T16:55:34;10.40;;;7.55;;
22939;SDS011;11636;52.086;5.090;2023-04-28T16:58:30;10.38;;;7.20;;
22939;SDS011;11636;52.086;5.090;2023-04-28T17:01:18;11.90;;;8.02;;
22939;SDS011;11636;52.086;5.090;2023-04-28T17:04:12;10.40;;;7.45;;
22939;SDS011;11636;52.086;5.090;2023-04-28T17:07:07;11.15;;;7.55;;
22939;SDS011;11636;52.086;5.090;2023-04-28T17:10:00;8.75;;;6.03;;
22939;SDS011;11636;52.086;5.090;2023-04-28T17:12:48;8.98;;;5.68;;
22939;SDS011;11636;52.086;5.090;2023-04-28T17:15:41;6.97;;;4.60;;
22939;SDS011;11636;52.086;5.090;2023-04-28T17:18:29;7.35;;;4.68;;
22939;SDS011;11636;52.086;5.090;2023-04-28T17:21:23;5.32;;;3.70;;
22939;SDS011;11636;52.086;5.090;2023-04-28T17:24:20;4.72;;;3.38;;
22939;SDS011;11636;52.086;5.090;2023-04-28T17:27:08;5.50;;;3.38;;
22939;SDS011;11636;52.086;5.090;2023-04-28T17:30:03;4.53;;;3.20;;